createdAt,value
2023-05-25T00:01:03.495Z,4.93
2023-05-25T00:03:05.334Z,4.30
2023-05-25T00:05:09.118Z,4.80
2023-05-25T00:07:12.097Z,4.47
2023-05-25T00:09:13.724Z,5.40
2023-05-25T00:11:15.376Z,5.10
2023-05-25T00:13:17.095Z,5.40
2023-05-25T00:15:21.583Z,3.63
2023-05-25T00:17:23.217Z,4.27
2023-05-25T00:19:24.876Z,4.13
2023-05-25T00:21:29.555Z,4.60
2023-05-25T00:23:32.584Z,5.10
2023-05-25T00:25:34.193Z,4.47
2023-05-25T00:27:35.802Z,4.30
2023-05-25T00:29:37.411Z,4.73
2023-05-25T00:31:39.417Z,5.17
2023-05-25T00:33:41.149Z,4.80
2023-05-25T00:35:43.335Z,4.77
2023-05-25T00:37:45.133Z,4.70
2023-05-25T00:39:48.061Z,4.80
2023-05-25T00:41:49.893Z,4.37
2023-05-25T00:43:51.580Z,4.60
2023-05-25T00:45:54.224Z,4.77
2023-05-25T00:47:56.273Z,4.40
2023-05-25T00:49:58.048Z,4.37
2023-05-25T00:51:59.844Z,4.60
2023-05-25T00:54:02.076Z,5.50
2023-05-25T00:56:10.074Z,4.70
2023-05-25T00:58:13.186Z,4.00
2023-05-25T01:00:17.691Z,4.40
2023-05-25T01:02:21.326Z,4.80
2023-05-25T01:04:24.098Z,5.03
2023-05-25T01:06:30.290Z,5.63
2023-05-25T01:08:35.593Z,4.40
2023-05-25T01:10:39.477Z,4.10
2023-05-25T01:12:44.814Z,4.73
2023-05-25T01:14:47.385Z,4.03
2023-05-25T01:16:49.599Z,4.20
2023-05-25T01:18:51.410Z,4.73
2023-05-25T01:21:04.120Z,4.63
2023-05-25T01:23:13.175Z,4.77
2023-05-25T01:25:18.733Z,5.10
2023-05-25T01:27:25.044Z,4.80
2023-05-25T01:29:32.041Z,5.20
2023-05-25T01:31:35.647Z,5.37
2023-05-25T01:33:38.460Z,5.07
2023-05-25T01:35:41.913Z,5.37
2023-05-25T01:37:47.187Z,4.70
2023-05-25T01:39:48.837Z,5.27
2023-05-25T01:41:50.520Z,5.13
2023-05-25T01:43:53.054Z,5.57
2023-05-25T01:46:02.545Z,4.67
2023-05-25T01:48:11.835Z,4.87
2023-05-25T01:50:21.702Z,5.30
2023-05-25T01:52:28.603Z,5.80
2023-05-25T01:54:36.962Z,5.07
2023-05-25T01:56:40.019Z,5.67
2023-05-25T01:58:44.464Z,4.80
2023-05-25T02:00:47.924Z,5.20
2023-05-25T02:02:52.516Z,5.90
2023-05-25T02:04:54.775Z,5.00
2023-05-25T02:06:56.888Z,4.77
2023-05-25T02:08:58.637Z,5.10
2023-05-25T02:11:02.012Z,5.13
2023-05-25T02:13:03.902Z,5.93
2023-05-25T02:15:06.710Z,5.10
2023-05-25T02:17:10.812Z,5.13
2023-05-25T02:19:12.891Z,5.93
2023-05-25T02:21:14.490Z,4.87
2023-05-25T02:23:16.157Z,5.90
2023-05-25T02:25:17.839Z,5.63
2023-05-25T02:27:20.931Z,4.73
2023-05-25T02:29:22.575Z,5.53
2023-05-25T02:31:24.213Z,5.60
2023-05-25T02:33:25.803Z,5.43
2023-05-25T02:35:27.470Z,4.77
2023-05-25T02:37:29.202Z,5.07
2023-05-25T02:39:33.666Z,5.40
2023-05-25T02:41:35.296Z,5.80
2023-05-25T02:43:38.301Z,4.73
2023-05-25T02:45:39.860Z,5.23
2023-05-25T02:47:41.529Z,5.03
2023-05-25T02:49:43.187Z,4.73
2023-05-25T02:51:44.874Z,5.23
2023-05-25T02:53:46.582Z,4.93
2023-05-25T02:55:48.163Z,5.30
2023-05-25T02:57:49.788Z,4.70
2023-05-25T02:59:52.832Z,4.97
2023-05-25T03:01:54.419Z,4.40
2023-05-25T03:03:56.667Z,5.80
2023-05-25T03:05:58.321Z,4.83
2023-05-25T03:07:59.921Z,5.80
2023-05-25T03:10:01.635Z,5.57
2023-05-25T03:12:03.924Z,6.10
2023-05-25T03:14:05.662Z,5.93
2023-05-25T03:16:08.778Z,5.23
2023-05-25T03:18:10.445Z,5.13
2023-05-25T03:20:12.781Z,5.47
2023-05-25T03:22:14.515Z,4.80
2023-05-25T03:24:16.223Z,5.63
2023-05-25T03:26:17.815Z,5.90
2023-05-25T03:28:19.388Z,5.10
2023-05-25T03:30:22.067Z,5.93
2023-05-25T03:32:25.239Z,5.27
2023-05-25T03:34:27.004Z,4.30
2023-05-25T03:36:28.639Z,4.90
2023-05-25T03:38:30.257Z,5.50
2023-05-25T03:40:31.855Z,5.57
2023-05-25T03:42:33.464Z,5.30
2023-05-25T03:44:35.062Z,5.40
2023-05-25T03:46:37.239Z,5.50
2023-05-25T03:48:40.298Z,5.90
2023-05-25T03:50:41.884Z,5.27
2023-05-25T03:52:43.463Z,5.70
2023-05-25T03:54:50.651Z,5.77
2023-05-25T03:56:52.242Z,5.90
2023-05-25T03:58:53.809Z,5.30
2023-05-25T04:00:55.410Z,5.30
2023-05-25T04:02:57.269Z,5.60
2023-05-25T04:05:00.366Z,5.60
2023-05-25T04:07:02.051Z,5.10
2023-05-25T04:09:04.227Z,5.17
2023-05-25T04:11:05.796Z,5.67
2023-05-25T04:13:10.489Z,5.13
2023-05-25T04:15:12.249Z,5.80
2023-05-25T04:17:13.799Z,5.83
2023-05-25T04:19:15.499Z,5.93
2023-05-25T04:21:18.582Z,5.10
2023-05-25T04:23:20.158Z,5.90
2023-05-25T04:25:21.761Z,6.57
2023-05-25T04:27:23.561Z,4.83
2023-05-25T04:29:25.233Z,5.00
2023-05-25T04:31:26.928Z,6.60
2023-05-25T04:33:28.723Z,6.13
2023-05-25T04:35:30.399Z,5.57
2023-05-25T04:37:33.877Z,5.47
2023-05-25T04:39:35.507Z,5.23
2023-05-25T04:41:37.070Z,4.93
2023-05-25T04:43:40.412Z,5.50
2023-05-25T04:45:48.047Z,5.50
2023-05-25T04:47:49.836Z,5.30
2023-05-25T04:49:51.604Z,4.93
2023-05-25T04:51:53.489Z,6.53
2023-05-25T04:53:56.456Z,5.60
2023-05-25T04:55:58.167Z,5.27
2023-05-25T04:57:59.911Z,5.90
2023-05-25T05:00:01.592Z,5.33
2023-05-25T05:02:03.435Z,5.00
2023-05-25T05:04:05.407Z,5.03
2023-05-25T05:06:07.167Z,5.43
2023-05-25T05:08:08.813Z,5.47
2023-05-25T05:10:12.005Z,5.63
2023-05-25T05:12:13.808Z,5.17
2023-05-25T05:14:15.887Z,5.17
2023-05-25T05:16:17.557Z,5.63
2023-05-25T05:18:19.245Z,6.10
2023-05-25T05:20:21.049Z,5.20
2023-05-25T05:22:22.715Z,5.20
2023-05-25T05:24:24.371Z,5.60
2023-05-25T05:26:27.407Z,5.67
2023-05-25T05:28:29.511Z,5.67
2023-05-25T05:30:33.979Z,5.40
2023-05-25T05:32:35.709Z,5.60
2023-05-25T05:34:37.368Z,5.47
2023-05-25T05:36:52.678Z,5.30
2023-05-25T05:38:58.728Z,5.40
2023-05-25T05:41:00.334Z,4.83
2023-05-25T05:43:03.325Z,4.97
2023-05-25T05:45:06.019Z,4.53
2023-05-25T05:47:07.713Z,5.10
2023-05-25T05:49:09.345Z,5.53
2023-05-25T05:51:11.304Z,5.50
2023-05-25T05:53:12.896Z,5.83
2023-05-25T05:55:14.500Z,5.40
2023-05-25T05:57:16.167Z,5.30
2023-05-25T05:59:20.872Z,5.47
2023-05-25T06:01:22.619Z,5.87
2023-05-25T06:03:24.282Z,6.40
2023-05-25T06:05:25.960Z,4.60
2023-05-25T06:07:27.638Z,4.97
2023-05-25T06:09:29.305Z,6.10
2023-05-25T06:11:30.919Z,5.50
2023-05-25T06:13:32.532Z,6.33
2023-05-25T06:15:35.706Z,5.63
2023-05-25T06:17:37.396Z,5.03
2023-05-25T06:19:39.061Z,5.80
2023-05-25T06:21:40.670Z,5.23
2023-05-25T06:23:42.263Z,5.90
2023-05-25T06:25:44.397Z,6.00
2023-05-25T06:27:46.505Z,5.40
2023-05-25T06:29:48.134Z,5.60
2023-05-25T06:31:51.178Z,5.53
2023-05-25T06:33:52.893Z,5.40
2023-05-25T06:35:56.332Z,5.60
2023-05-25T06:37:58.168Z,5.80
2023-05-25T06:39:59.867Z,4.73
2023-05-25T06:42:01.484Z,5.23
2023-05-25T06:44:03.126Z,6.10
2023-05-25T06:46:04.894Z,5.00
2023-05-25T06:48:08.001Z,5.33
2023-05-25T06:50:10.216Z,5.70
2023-05-25T06:52:11.952Z,6.30
2023-05-25T06:54:13.605Z,6.07
2023-05-25T06:56:15.181Z,5.43
2023-05-25T06:58:16.992Z,5.53
2023-05-25T07:00:21.835Z,5.90
2023-05-25T07:02:23.513Z,4.73
2023-05-25T07:04:26.555Z,5.57
2023-05-25T07:06:29.522Z,5.30
2023-05-25T07:08:31.147Z,5.73
2023-05-25T07:10:33.582Z,6.07
2023-05-25T07:12:35.158Z,5.40
2023-05-25T07:14:37.140Z,5.50
2023-05-25T07:16:38.862Z,4.63
2023-05-25T07:18:40.500Z,4.70
2023-05-25T07:20:44.023Z,5.50
2023-05-25T07:22:47.330Z,5.50
2023-05-25T07:24:49.609Z,4.27
2023-05-25T07:26:51.231Z,5.63
2023-05-25T07:28:52.969Z,5.27
2023-05-25T07:30:54.605Z,5.40
2023-05-25T07:32:56.282Z,6.40
2023-05-25T07:34:57.976Z,5.50
2023-05-25T07:37:01.048Z,4.60
2023-05-25T07:39:05.181Z,4.10
2023-05-25T07:41:07.497Z,4.50
2023-05-25T07:43:09.240Z,4.07
2023-05-25T07:45:11.599Z,4.70
2023-05-25T07:47:13.413Z,4.90
2023-05-25T07:49:15.136Z,4.10
2023-05-25T07:51:16.938Z,4.33
2023-05-25T07:53:19.943Z,4.00
2023-05-25T07:55:21.718Z,4.77
2023-05-25T07:57:23.377Z,5.50
2023-05-25T07:59:26.480Z,5.43
2023-05-25T08:01:28.145Z,4.63
2023-05-25T08:03:47.396Z,5.50
2023-05-25T08:05:51.185Z,4.93
2023-05-25T08:07:52.873Z,4.47
2023-05-25T08:09:55.899Z,4.53
2023-05-25T08:12:18.711Z,4.83
2023-05-25T08:14:21.707Z,5.30
2023-05-25T08:16:23.371Z,4.57
2023-05-25T08:18:25.133Z,5.53
2023-05-25T08:20:26.801Z,5.47
2023-05-25T08:22:28.771Z,4.70
2023-05-25T08:24:30.513Z,4.93
2023-05-25T08:26:52.364Z,5.03
2023-05-25T08:28:55.115Z,5.50
2023-05-25T08:30:56.828Z,5.07
2023-05-25T08:32:58.633Z,4.60
2023-05-25T08:35:00.346Z,4.43
2023-05-25T08:37:02.038Z,4.50
2023-05-25T08:39:04.120Z,4.80
2023-05-25T08:41:07.171Z,4.63
2023-05-25T08:43:10.389Z,4.37
2023-05-25T08:45:22.615Z,4.77
2023-05-25T08:47:31.613Z,5.80
2023-05-25T08:49:35.466Z,5.40
2023-05-25T08:51:39.064Z,5.70
2023-05-25T08:53:43.491Z,4.80
2023-05-25T08:55:47.525Z,4.80
2023-05-25T08:57:54.802Z,4.80
2023-05-25T09:00:03.704Z,5.03
2023-05-25T09:02:21.223Z,4.83
2023-05-25T09:04:23.642Z,4.60
2023-05-25T09:06:26.064Z,5.20
2023-05-25T09:08:28.055Z,5.10
2023-05-25T09:10:31.332Z,5.00
2023-05-25T09:12:33.396Z,5.40
2023-05-25T09:14:35.552Z,5.10
2023-05-25T09:16:38.828Z,4.93
2023-05-25T09:18:40.625Z,5.70
2023-05-25T09:20:44.352Z,4.77
2023-05-25T09:22:48.125Z,4.60
2023-05-25T09:24:49.903Z,5.27
2023-05-25T09:26:51.902Z,5.20
2023-05-25T09:28:53.534Z,5.00
2023-05-25T09:30:56.446Z,5.57
2023-05-25T09:33:09.872Z,5.37
2023-05-25T09:35:13.299Z,5.87
2023-05-25T09:37:16.201Z,5.77
2023-05-25T09:39:18.275Z,5.20
2023-05-25T09:41:20.298Z,5.47
2023-05-25T09:43:36.434Z,5.93
2023-05-25T09:45:42.274Z,4.77
2023-05-25T09:47:44.048Z,5.03
2023-05-25T09:49:47.133Z,4.40
2023-05-25T09:51:49.561Z,5.90
2023-05-25T09:53:51.424Z,6.80
2023-05-25T09:55:54.504Z,6.90
2023-05-25T09:57:57.086Z,6.70
2023-05-25T09:59:59.025Z,4.90
2023-05-25T10:02:01.123Z,6.40
2023-05-25T10:04:04.669Z,5.50
2023-05-25T10:06:08.605Z,7.20
2023-05-25T10:08:11.377Z,6.20
2023-05-25T10:10:14.825Z,6.37
2023-05-25T10:12:19.803Z,5.90
2023-05-25T10:14:29.092Z,4.83
2023-05-25T10:16:34.126Z,7.03
2023-05-25T10:18:39.919Z,5.10
2023-05-25T10:20:42.256Z,5.67
2023-05-25T10:22:51.653Z,5.30
2023-05-25T10:24:57.061Z,5.10
2023-05-25T10:29:25.292Z,6.13
2023-05-25T10:31:27.554Z,6.40
2023-05-25T10:35:46.863Z,5.90
2023-05-25T10:37:58.883Z,6.30
2023-05-25T10:40:02.106Z,7.20
2023-05-25T10:42:07.527Z,6.00
2023-05-25T10:44:09.943Z,4.10
2023-05-25T10:46:11.951Z,6.40
2023-05-25T10:48:14.370Z,6.00
2023-05-25T10:50:20.497Z,5.53
2023-05-25T11:10:15.233Z,5.20
2023-05-25T11:12:20.700Z,5.80
2023-05-25T11:14:23.314Z,6.33
2023-05-25T11:16:32.087Z,4.60
2023-05-25T11:18:37.755Z,6.50
2023-05-25T11:20:39.500Z,5.23
2023-05-25T11:22:41.295Z,4.73
2023-05-25T11:24:43.145Z,4.27
2023-05-25T11:26:59.909Z,5.60
2023-05-25T11:29:12.028Z,6.87
2023-05-25T11:31:13.976Z,5.00
2023-05-25T11:33:15.953Z,5.90
2023-05-25T11:35:17.739Z,4.67
2023-05-25T11:37:20.900Z,6.53
2023-05-25T11:39:25.137Z,4.33
2023-05-25T11:41:27.087Z,6.40
2023-05-25T11:43:33.792Z,4.80
2023-05-25T11:45:35.450Z,4.23
2023-05-25T11:47:38.151Z,4.23
2023-05-25T11:49:40.684Z,5.10
2023-05-25T11:51:43.310Z,5.30
2023-05-25T11:53:45.622Z,4.10
2023-05-25T11:55:50.917Z,4.70
2023-05-25T11:57:56.517Z,4.77
2023-05-25T12:00:00.760Z,6.93
2023-05-25T12:02:04.212Z,5.20
2023-05-25T12:04:09.066Z,5.37
2023-05-25T12:06:23.842Z,4.03
2023-05-25T12:08:32.311Z,4.53
2023-05-25T12:10:34.300Z,4.30
2023-05-25T12:12:41.270Z,6.13
2023-05-25T12:14:47.635Z,5.83
2023-05-25T12:16:51.229Z,5.20
2023-05-25T12:18:54.953Z,5.27
2023-05-25T12:20:56.758Z,5.20
2023-05-25T12:22:58.569Z,5.30
2023-05-25T12:25:00.307Z,6.30
2023-05-25T12:27:01.950Z,6.00
2023-05-25T12:29:05.482Z,6.00
2023-05-25T12:31:23.488Z,6.80
2023-05-25T12:33:26.659Z,5.73
2023-05-25T12:35:28.345Z,5.53
2023-05-25T12:37:30.013Z,4.50
2023-05-25T12:39:33.999Z,6.00
2023-05-25T12:41:54.601Z,5.30
2023-05-25T12:43:57.134Z,5.50
2023-05-25T12:45:58.849Z,4.77
2023-05-25T12:48:02.206Z,4.93
2023-05-25T12:50:14.265Z,4.80
2023-05-25T12:52:34.505Z,4.23
2023-05-25T12:54:41.781Z,7.43
2023-05-25T12:56:55.827Z,4.00
2023-05-25T12:59:14.190Z,4.40
2023-05-25T13:01:15.824Z,3.93
2023-05-25T13:03:17.805Z,4.37
2023-05-25T13:05:24.661Z,3.87
2023-05-25T13:07:26.288Z,4.00
2023-05-25T13:09:28.328Z,4.10
2023-05-25T13:11:29.965Z,5.90
2023-05-25T13:13:31.678Z,4.40
2023-05-25T13:15:33.512Z,4.03
2023-05-25T13:17:35.232Z,3.97
2023-05-25T13:19:36.934Z,4.40
2023-05-25T13:21:40.034Z,3.80
2023-05-25T13:23:41.931Z,3.50
2023-05-25T13:25:43.554Z,4.97
2023-05-25T13:27:46.766Z,4.20
2023-05-25T13:29:48.557Z,3.37
2023-05-25T13:31:50.222Z,3.93
2023-05-25T13:33:51.917Z,4.97
2023-05-25T13:35:53.523Z,3.90
2023-05-25T13:37:56.502Z,3.83
2023-05-25T13:39:58.155Z,3.90
2023-05-25T13:41:59.803Z,4.13
2023-05-25T13:44:01.432Z,4.47
2023-05-25T13:46:03.193Z,4.20
2023-05-25T13:48:05.057Z,4.80
2023-05-25T13:50:07.400Z,3.57
2023-05-25T13:52:09.052Z,3.80
2023-05-25T13:54:12.034Z,5.80
2023-05-25T13:56:13.632Z,5.27
2023-05-25T13:58:15.306Z,4.60
2023-05-25T14:00:17.533Z,4.00
2023-05-25T14:02:19.225Z,4.20
2023-05-25T14:04:21.059Z,4.70
2023-05-25T14:06:22.663Z,5.97
2023-05-25T14:08:24.319Z,5.23
2023-05-25T14:10:27.327Z,3.73
2023-05-25T14:12:28.948Z,4.13
2023-05-25T14:14:31.903Z,3.53
2023-05-25T14:16:34.404Z,3.73
2023-05-25T14:18:36.108Z,3.57
2023-05-25T14:20:38.216Z,3.77
2023-05-25T14:22:39.940Z,3.43
2023-05-25T14:24:42.043Z,3.87
2023-05-25T14:26:45.137Z,5.30
2023-05-25T14:28:46.773Z,4.10
2023-05-25T14:30:48.402Z,5.60
2023-05-25T14:32:50.535Z,4.50
2023-05-25T14:34:52.239Z,4.03
2023-05-25T14:36:53.829Z,4.33
2023-05-25T14:38:55.419Z,4.30
2023-05-25T14:40:57.087Z,3.90
2023-05-25T14:43:00.128Z,3.53
2023-05-25T14:45:02.234Z,5.30
2023-05-25T14:47:04.592Z,3.50
2023-05-25T14:49:06.368Z,4.30
2023-05-25T14:51:08.072Z,4.20
2023-05-25T14:53:09.745Z,5.80
2023-05-25T14:55:11.386Z,3.53
2023-05-25T14:57:13.129Z,3.57
2023-05-25T14:59:16.164Z,3.97
2023-05-25T15:01:17.843Z,3.83
2023-05-25T15:03:19.677Z,3.57
2023-05-25T15:05:21.446Z,3.70
2023-05-25T15:07:23.171Z,3.40
2023-05-25T15:09:24.791Z,3.70
2023-05-25T15:11:26.679Z,3.57
2023-05-25T15:13:28.284Z,3.73
2023-05-25T15:15:31.202Z,3.60
2023-05-25T15:17:32.986Z,3.37
2023-05-25T15:19:34.697Z,4.07
2023-05-25T15:21:36.283Z,4.33
2023-05-25T15:23:37.976Z,4.20
2023-05-25T15:25:39.712Z,3.80
2023-05-25T15:27:41.301Z,3.33
2023-05-25T15:29:42.916Z,3.73
2023-05-25T15:31:46.099Z,5.20
2023-05-25T15:33:56.331Z,4.43
2023-05-25T15:36:00.167Z,4.20
2023-05-25T15:38:01.882Z,4.93
2023-05-25T15:40:03.907Z,3.90
2023-05-25T15:42:06.383Z,4.50
2023-05-25T15:44:08.017Z,4.07
2023-05-25T15:46:09.732Z,5.13
2023-05-25T15:48:12.953Z,4.00
2023-05-25T15:50:14.672Z,5.20
2023-05-25T15:52:16.330Z,4.20
2023-05-25T15:54:17.947Z,3.97
2023-05-25T15:56:19.525Z,4.93
2023-05-25T15:58:21.191Z,4.20
2023-05-25T16:00:23.281Z,4.30
2023-05-25T16:02:24.976Z,5.40
2023-05-25T16:04:28.082Z,4.57
2023-05-25T16:06:29.968Z,4.20
2023-05-25T16:08:31.705Z,4.00
2023-05-25T16:10:33.347Z,3.70
2023-05-25T16:12:35.390Z,4.07
2023-05-25T16:14:37.056Z,4.83
2023-05-25T16:16:38.779Z,4.40
2023-05-25T16:18:40.458Z,4.10
2023-05-25T16:20:43.585Z,4.90
2023-05-25T16:22:45.264Z,4.63
2023-05-25T16:24:47.149Z,4.90
2023-05-25T16:26:48.796Z,3.90
2023-05-25T16:28:50.487Z,4.77
2023-05-25T16:30:52.393Z,4.53
2023-05-25T16:32:54.116Z,5.00
2023-05-25T16:34:55.796Z,4.93
2023-05-25T16:36:58.846Z,5.57
2023-05-25T16:39:00.701Z,6.50
2023-05-25T16:41:02.327Z,5.13
2023-05-25T16:43:04.161Z,5.57
2023-05-25T16:45:07.208Z,6.07
2023-05-25T16:47:08.889Z,4.80
2023-05-25T16:49:10.557Z,4.97
2023-05-25T16:51:12.310Z,4.80
2023-05-25T16:53:15.441Z,4.60
2023-05-25T16:55:17.132Z,4.80
2023-05-25T16:57:18.847Z,4.23
2023-05-25T16:59:20.456Z,4.70
2023-05-25T17:01:22.313Z,5.13
2023-05-25T17:03:24.134Z,5.43
2023-05-25T17:05:25.904Z,5.67
2023-05-25T17:07:27.670Z,4.97
2023-05-25T17:09:30.651Z,5.80
2023-05-25T17:11:32.179Z,4.87
2023-05-25T17:13:33.897Z,4.80
2023-05-25T17:15:35.555Z,5.40
2023-05-25T17:17:37.199Z,4.70
2023-05-25T17:19:38.965Z,4.40
2023-05-25T17:21:40.842Z,4.70
2023-05-25T17:23:42.463Z,5.63
2023-05-25T17:25:45.681Z,5.00
2023-05-25T17:27:47.666Z,4.53
2023-05-25T17:29:49.371Z,4.73
2023-05-25T17:31:51.317Z,5.13
2023-05-25T17:33:52.977Z,6.40
2023-05-25T17:35:54.598Z,4.93
2023-05-25T17:37:56.397Z,5.57
2023-05-25T17:39:58.056Z,4.67
2023-05-25T17:42:01.141Z,5.17
2023-05-25T17:44:05.656Z,6.07
2023-05-25T17:46:07.699Z,5.00
2023-05-25T17:48:11.950Z,4.57
2023-05-25T17:50:13.808Z,5.30
2023-05-25T17:52:15.544Z,5.57
2023-05-25T17:54:17.261Z,5.93
2023-05-25T17:56:18.975Z,5.50
2023-05-25T17:58:22.184Z,5.80
2023-05-25T18:00:24.137Z,5.53
2023-05-25T18:02:26.050Z,5.40
2023-05-25T18:04:27.933Z,5.53
2023-05-25T18:06:29.855Z,5.50
2023-05-25T18:08:31.477Z,6.30
2023-05-25T18:10:33.105Z,5.83
2023-05-25T18:12:34.726Z,5.20
2023-05-25T18:14:37.743Z,6.10
2023-05-25T18:16:39.556Z,5.83
2023-05-25T18:18:41.354Z,7.47
2023-05-25T18:20:43.229Z,5.70
2023-05-25T18:22:44.974Z,7.40
2023-05-25T18:24:46.615Z,5.37
2023-05-25T18:26:48.493Z,7.20
2023-05-25T18:28:50.112Z,7.50
2023-05-25T18:30:53.305Z,6.10
2023-05-25T18:32:55.043Z,8.60
2023-05-25T18:34:57.469Z,8.93
2023-05-25T18:36:59.176Z,7.13
2023-05-25T18:39:00.809Z,7.90
2023-05-25T18:41:02.631Z,8.93
2023-05-25T18:43:04.300Z,7.43
2023-05-25T18:45:06.866Z,8.70
2023-05-25T18:47:09.890Z,5.97
2023-05-25T18:49:11.589Z,5.97
2023-05-25T18:51:13.234Z,5.17
2023-05-25T18:53:14.985Z,5.27
2023-05-25T18:55:17.347Z,5.37
2023-05-25T18:57:19.018Z,5.50
2023-05-25T18:59:20.661Z,6.43
2023-05-25T19:01:23.619Z,5.83
2023-05-25T19:03:27.886Z,5.27
2023-05-25T19:05:29.613Z,7.40
2023-05-25T19:07:31.227Z,5.50
2023-05-25T19:09:32.889Z,6.50
2023-05-25T19:11:34.474Z,5.40
2023-05-25T19:13:36.184Z,6.43
2023-05-25T19:15:37.919Z,9.00
2023-05-25T19:17:39.633Z,8.67
2023-05-25T19:19:42.711Z,8.07
2023-05-25T19:21:44.387Z,8.90
2023-05-25T19:23:46.067Z,8.00
2023-05-25T19:25:47.938Z,8.30
2023-05-25T19:27:49.761Z,8.13
2023-05-25T19:29:51.418Z,9.20
2023-05-25T19:31:53.076Z,8.30
2023-05-25T19:33:54.839Z,8.63
2023-05-25T19:35:57.850Z,8.73
2023-05-25T19:38:01.188Z,8.73
2023-05-25T19:40:04.034Z,9.27
2023-05-25T19:42:05.918Z,9.90
2023-05-25T19:44:07.658Z,9.60
2023-05-25T19:46:09.582Z,9.20
2023-05-25T19:48:11.478Z,9.23
2023-05-25T19:50:13.516Z,9.30
2023-05-25T19:52:17.107Z,8.17
2023-05-25T19:54:21.360Z,8.93
2023-05-25T19:56:22.962Z,7.93
2023-05-25T19:58:24.850Z,7.90
2023-05-25T20:00:27.361Z,11.70
2023-05-25T20:02:29.254Z,10.73
2023-05-25T20:04:31.086Z,9.50
2023-05-25T20:06:32.713Z,9.80
2023-05-25T20:08:36.926Z,9.90
2023-05-25T20:10:38.857Z,9.43
2023-05-25T20:12:40.496Z,9.50
2023-05-25T20:14:43.628Z,7.90
2023-05-25T20:16:45.306Z,9.13
2023-05-25T20:18:47.002Z,9.13
2023-05-25T20:20:48.676Z,7.77
2023-05-25T20:22:50.550Z,10.37
2023-05-25T20:24:53.535Z,8.27
2023-05-25T20:26:55.455Z,8.33
2023-05-25T20:28:57.398Z,8.77
2023-05-25T20:30:59.100Z,8.03
2023-05-25T20:33:00.805Z,8.40
2023-05-25T20:35:02.572Z,7.77
2023-05-25T20:37:04.282Z,8.10
2023-05-25T20:39:05.923Z,7.97
2023-05-25T20:41:09.526Z,8.07
2023-05-25T20:43:11.186Z,7.47
2023-05-25T20:45:12.872Z,9.17
2023-05-25T20:47:14.539Z,9.07
2023-05-25T20:49:16.656Z,8.00
2023-05-25T20:51:18.272Z,8.17
2023-05-25T20:53:19.924Z,8.30
2023-05-25T20:55:21.658Z,8.07
2023-05-25T20:57:24.647Z,8.63
2023-05-25T20:59:26.292Z,9.27
2023-05-25T21:01:27.973Z,8.13
2023-05-25T21:03:29.741Z,8.00
2023-05-25T21:05:31.615Z,8.20
2023-05-25T21:07:33.253Z,7.50
2023-05-25T21:09:34.904Z,8.30
2023-05-25T21:11:36.554Z,8.40
2023-05-25T21:13:39.540Z,7.83
2023-05-25T21:15:41.200Z,8.13
2023-05-25T21:17:42.845Z,8.40
2023-05-25T21:19:44.435Z,9.17
2023-05-25T21:21:46.048Z,7.83
2023-05-25T21:23:47.739Z,8.27
2023-05-25T21:25:49.368Z,7.60
2023-05-25T21:27:51.165Z,7.43
2023-05-25T21:29:54.417Z,7.27
2023-05-25T21:31:56.044Z,8.20
2023-05-25T21:33:58.842Z,7.87
2023-05-25T21:36:01.907Z,8.13
2023-05-25T21:38:03.537Z,8.07
2023-05-25T21:40:08.226Z,7.23
2023-05-25T21:42:10.052Z,6.90
2023-05-25T21:44:11.873Z,7.90
2023-05-25T21:46:14.841Z,7.40
2023-05-25T21:48:16.552Z,7.67
2023-05-25T21:50:18.762Z,6.70
2023-05-25T21:52:20.661Z,7.47
2023-05-25T21:54:22.305Z,6.80
2023-05-25T21:56:24.059Z,7.40
2023-05-25T21:58:25.677Z,6.87
2023-05-25T22:00:27.541Z,8.57
2023-05-25T22:02:30.583Z,7.00
2023-05-25T22:04:32.361Z,7.33
2023-05-25T22:06:34.027Z,7.10
2023-05-25T22:08:35.726Z,7.97
2023-05-25T22:10:38.292Z,7.27
2023-05-25T22:12:39.950Z,7.20
2023-05-25T22:14:41.523Z,7.50
2023-05-25T22:16:43.307Z,8.07
2023-05-25T22:18:46.309Z,7.97
2023-05-25T22:20:47.940Z,7.27
2023-05-25T22:22:49.639Z,7.60
2023-05-25T22:24:51.538Z,7.47
2023-05-25T22:26:53.141Z,7.90
2023-05-25T22:28:54.893Z,7.43
2023-05-25T22:30:56.707Z,8.53
2023-05-25T22:32:58.512Z,8.20
2023-05-25T22:35:01.661Z,7.20
2023-05-25T22:37:03.421Z,7.30
2023-05-25T22:39:05.052Z,7.03
2023-05-25T22:41:07.219Z,7.40
2023-05-25T22:43:08.905Z,7.60
2023-05-25T22:45:11.080Z,7.57
2023-05-25T22:47:13.048Z,7.47
2023-05-25T22:49:14.778Z,6.70
2023-05-25T22:51:17.790Z,7.93
2023-05-25T22:53:19.391Z,8.60
2023-05-25T22:55:21.244Z,8.03
2023-05-25T22:57:22.844Z,6.87
2023-05-25T22:59:24.433Z,6.87
2023-05-25T23:01:26.110Z,7.80
2023-05-25T23:03:27.881Z,7.93
2023-05-25T23:05:29.672Z,7.50
2023-05-25T23:07:32.723Z,7.40
2023-05-25T23:09:34.339Z,6.73
2023-05-25T23:11:35.992Z,8.03
2023-05-25T23:13:37.614Z,7.50
2023-05-25T23:15:39.641Z,6.73
2023-05-25T23:17:41.380Z,7.77
2023-05-25T23:19:43.188Z,8.30
2023-05-25T23:21:44.823Z,7.03
2023-05-25T23:23:48.114Z,7.23
2023-05-25T23:25:50.077Z,7.77
2023-05-25T23:27:51.924Z,8.00
2023-05-25T23:29:53.698Z,7.73
2023-05-25T23:31:55.376Z,7.30
2023-05-25T23:33:57.107Z,7.13
2023-05-25T23:35:59.050Z,7.63
2023-05-25T23:38:00.733Z,7.30
2023-05-25T23:40:05.099Z,7.57
2023-05-25T23:42:07.391Z,7.80
2023-05-25T23:44:09.035Z,7.50
2023-05-25T23:46:10.721Z,8.23
2023-05-25T23:48:12.484Z,7.90
2023-05-25T23:50:14.155Z,7.60
2023-05-25T23:52:15.920Z,6.93
2023-05-25T23:54:17.505Z,6.93
2023-05-25T23:56:20.606Z,8.57
2023-05-25T23:58:22.184Z,7.30
